La Grande, Oregon
Current Conditions -  °F | °C
As of 2:55 AM on Friday 31 Oct 2014 (Local Time) from KLGD Reporting Station
Clear Clear  
Wind Chill: 61°   Ceiling: Unl
Heat Index: 61°   Visibility: 10mi
Dew Point: 34°   Wind: 10mph
Humidity: 36%   Direction: 190°S
Pressure: 29.75"   Gusts: 24mph
Location:  45.33°N, 118.09°W
Report Text: KLGD 310955Z AUTO 19009G21KT 10SM CLR 16/01 A2975 RMK AO1
Loading
Personal Weather Stations






























Interactive Weather Map New forecast layout! Learn more

10-Day Weather Forecast

Advertisements
Track Severe Weather on mobile